createdAt,value
2022-12-18T00:00:06.787Z,42.50
2022-12-18T00:02:39.814Z,42.40
2022-12-18T00:05:12.797Z,42.55
2022-12-18T00:07:45.700Z,42.46
2022-12-18T00:10:18.863Z,42.58
2022-12-18T00:12:52.784Z,42.54
2022-12-18T00:15:25.798Z,42.43
2022-12-18T00:17:58.785Z,42.54
2022-12-18T00:20:31.870Z,42.60
2022-12-18T00:23:04.725Z,42.60
2022-12-18T00:25:37.700Z,42.64
2022-12-18T00:28:10.847Z,42.66
2022-12-18T00:30:43.641Z,42.70
2022-12-18T00:33:16.745Z,42.64
2022-12-18T00:35:49.833Z,42.77
2022-12-18T00:38:22.850Z,42.83
2022-12-18T00:40:55.751Z,42.89
2022-12-18T00:43:28.848Z,42.86
2022-12-18T00:46:01.864Z,42.91
2022-12-18T00:48:34.850Z,42.91
2022-12-18T00:51:07.798Z,42.91
2022-12-18T00:53:41.266Z,42.96
2022-12-18T00:56:13.934Z,42.95
2022-12-18T00:58:47.861Z,42.94
2022-12-18T01:01:21.069Z,42.90
2022-12-18T01:03:53.897Z,42.87
2022-12-18T01:06:26.787Z,42.92
2022-12-18T01:08:59.889Z,42.83
2022-12-18T01:11:32.793Z,42.89
2022-12-18T01:14:05.894Z,42.88
2022-12-18T01:16:38.991Z,42.99
2022-12-18T01:19:11.776Z,42.96
2022-12-18T01:21:44.860Z,42.92
2022-12-18T01:24:17.925Z,42.89
2022-12-18T01:26:50.847Z,43.00
2022-12-18T01:29:26.893Z,42.96
2022-12-18T01:31:59.821Z,43.07
2022-12-18T01:34:32.839Z,43.07
2022-12-18T01:37:05.932Z,43.03
2022-12-18T01:39:38.911Z,43.08
2022-12-18T01:42:11.936Z,43.08
2022-12-18T01:44:45.000Z,43.08
2022-12-18T01:47:18.897Z,43.05
2022-12-18T01:49:51.854Z,43.08
2022-12-18T01:52:24.929Z,43.11
2022-12-18T01:55:00.912Z,43.12
2022-12-18T01:57:33.864Z,43.11
2022-12-18T02:00:06.859Z,43.04
2022-12-18T02:02:40.063Z,43.07
2022-12-18T02:05:13.009Z,43.08
2022-12-18T02:07:45.969Z,43.08
2022-12-18T02:10:18.994Z,43.05
2022-12-18T02:12:52.116Z,43.05
2022-12-18T02:15:25.009Z,43.06
2022-12-18T02:17:58.003Z,43.06
2022-12-18T02:20:30.997Z,43.08
2022-12-18T02:23:03.977Z,43.05
2022-12-18T02:25:37.028Z,43.09
2022-12-18T02:28:10.116Z,43.09
2022-12-18T02:30:42.872Z,43.09
2022-12-18T02:33:15.936Z,43.09
2022-12-18T02:35:49.049Z,43.07
2022-12-18T02:38:22.026Z,43.05
2022-12-18T02:40:54.973Z,43.07
2022-12-18T02:43:28.155Z,43.06
2022-12-18T02:46:01.111Z,43.05
2022-12-18T02:48:33.989Z,43.07
2022-12-18T02:51:07.000Z,43.06
2022-12-18T02:53:40.588Z,43.05
2022-12-18T02:56:13.056Z,43.09
2022-12-18T02:58:46.071Z,43.05
2022-12-18T03:01:19.136Z,43.09
2022-12-18T03:03:51.935Z,43.08
2022-12-18T03:06:25.012Z,43.07
2022-12-18T03:08:58.009Z,43.03
2022-12-18T03:11:31.102Z,43.01
2022-12-18T03:14:04.080Z,43.07
2022-12-18T03:16:37.130Z,42.98
2022-12-18T03:19:10.041Z,43.02
2022-12-18T03:21:43.097Z,43.03
2022-12-18T03:24:16.065Z,43.03
2022-12-18T03:26:49.045Z,43.03
2022-12-18T03:29:22.194Z,43.02
2022-12-18T03:31:55.028Z,43.04
2022-12-18T03:34:28.092Z,43.05
2022-12-18T03:37:01.146Z,43.05
2022-12-18T03:39:34.127Z,43.05
2022-12-18T03:42:07.039Z,43.04
2022-12-18T03:44:40.199Z,43.05
2022-12-18T03:47:13.085Z,43.04
2022-12-18T03:49:46.081Z,43.00
2022-12-18T03:52:19.044Z,43.03
2022-12-18T03:54:52.117Z,43.00
2022-12-18T03:57:25.127Z,43.05
2022-12-18T03:59:58.284Z,43.03
2022-12-18T04:02:31.380Z,43.03
2022-12-18T04:05:04.045Z,43.04
2022-12-18T04:07:37.077Z,43.06
2022-12-18T04:10:09.973Z,43.03
2022-12-18T04:12:43.173Z,43.04
2022-12-18T04:15:16.239Z,43.04
2022-12-18T04:17:49.165Z,43.04
2022-12-18T04:20:22.053Z,43.03
2022-12-18T04:22:55.160Z,43.03
2022-12-18T04:25:28.074Z,42.98
2022-12-18T04:28:01.189Z,43.01
2022-12-18T04:30:33.946Z,42.99
2022-12-18T04:33:07.182Z,43.03
2022-12-18T04:35:40.221Z,43.03
2022-12-18T04:38:13.184Z,42.96
2022-12-18T04:40:46.074Z,42.97
2022-12-18T04:43:19.345Z,42.93
2022-12-18T04:45:52.364Z,42.97
2022-12-18T04:48:25.235Z,42.98
2022-12-18T04:50:58.255Z,42.97
2022-12-18T04:53:31.240Z,42.95
2022-12-18T04:56:04.216Z,42.94
2022-12-18T04:58:37.238Z,42.96
2022-12-18T05:01:10.324Z,42.95
2022-12-18T05:03:43.995Z,42.94
2022-12-18T05:06:16.125Z,42.84
2022-12-18T05:08:49.270Z,42.95
2022-12-18T05:11:22.254Z,42.95
2022-12-18T05:13:55.262Z,42.97
2022-12-18T05:16:28.442Z,42.93
2022-12-18T05:19:01.265Z,42.98
2022-12-18T05:21:34.292Z,42.89
2022-12-18T05:24:07.182Z,42.99
2022-12-18T05:26:40.260Z,42.99
2022-12-18T05:29:13.288Z,43.00
2022-12-18T05:31:46.169Z,43.00
2022-12-18T05:34:19.285Z,43.04
2022-12-18T05:36:52.335Z,43.04
2022-12-18T05:39:25.322Z,43.07
2022-12-18T05:41:58.199Z,43.06
2022-12-18T05:44:31.338Z,43.08
2022-12-18T05:47:04.437Z,43.10
2022-12-18T05:49:37.204Z,43.10
2022-12-18T05:52:10.233Z,43.11
2022-12-18T05:54:43.317Z,43.09
2022-12-18T05:57:16.238Z,43.08
2022-12-18T05:59:49.259Z,43.06
2022-12-18T06:02:22.677Z,43.09
2022-12-18T06:04:55.366Z,43.09
2022-12-18T06:07:28.197Z,43.10
2022-12-18T06:10:01.364Z,43.10
2022-12-18T06:12:34.357Z,43.09
2022-12-18T06:15:07.276Z,43.06
2022-12-18T06:17:40.523Z,43.04
2022-12-18T06:20:13.344Z,43.05
2022-12-18T06:22:46.375Z,43.06
2022-12-18T06:25:19.252Z,43.05
2022-12-18T06:27:52.354Z,43.08
2022-12-18T06:30:25.278Z,43.07
2022-12-18T06:32:58.470Z,43.08
2022-12-18T06:35:31.309Z,43.13
2022-12-18T06:38:04.396Z,43.15
2022-12-18T06:40:37.118Z,43.13
2022-12-18T06:43:10.438Z,43.06
2022-12-18T06:45:43.493Z,42.95
2022-12-18T06:48:16.437Z,43.03
2022-12-18T06:50:49.431Z,43.08
2022-12-18T06:53:22.358Z,43.02
2022-12-18T06:55:55.401Z,43.07
2022-12-18T06:58:28.322Z,43.03
2022-12-18T07:01:01.394Z,43.04
2022-12-18T07:03:34.579Z,43.00
2022-12-18T07:06:07.500Z,43.03
2022-12-18T07:08:41.451Z,43.03
2022-12-18T07:11:14.399Z,43.02
2022-12-18T07:13:47.444Z,43.01
2022-12-18T07:16:24.900Z,42.98
2022-12-18T07:18:53.377Z,43.00
2022-12-18T07:21:26.380Z,43.03
2022-12-18T07:23:59.483Z,42.99
2022-12-18T07:26:32.439Z,43.00
2022-12-18T07:29:05.474Z,42.98
2022-12-18T07:31:38.512Z,42.96
2022-12-18T07:34:11.547Z,42.97
2022-12-18T07:36:44.477Z,42.95
2022-12-18T07:39:17.369Z,42.94
2022-12-18T07:41:50.411Z,42.93
2022-12-18T07:44:23.516Z,42.92
2022-12-18T07:46:56.292Z,42.91
2022-12-18T07:49:29.586Z,42.92
2022-12-18T07:52:02.536Z,42.89
2022-12-18T07:54:35.510Z,42.90
2022-12-18T07:57:16.450Z,42.90
2022-12-18T07:59:41.541Z,42.90
2022-12-18T08:02:14.601Z,42.88
2022-12-18T08:04:47.669Z,42.92
2022-12-18T08:07:20.560Z,42.92
2022-12-18T08:09:53.338Z,42.97
2022-12-18T08:12:26.249Z,42.95
2022-12-18T08:14:59.354Z,42.94
2022-12-18T08:17:32.248Z,42.97
2022-12-18T08:20:05.691Z,42.77
2022-12-18T08:22:38.291Z,42.51
2022-12-18T08:25:11.180Z,42.23
2022-12-18T08:27:44.493Z,42.20
2022-12-18T08:30:17.250Z,42.21
2022-12-18T08:32:50.490Z,42.20
2022-12-18T08:35:23.691Z,42.18
2022-12-18T08:37:56.333Z,42.11
2022-12-18T08:40:29.513Z,42.41
2022-12-18T08:43:02.369Z,42.17
2022-12-18T08:45:35.646Z,42.28
2022-12-18T08:48:08.714Z,42.37
2022-12-18T08:50:42.434Z,42.41
2022-12-18T08:53:15.535Z,42.46
2022-12-18T08:55:50.399Z,42.53
2022-12-18T08:58:21.382Z,42.60
2022-12-18T09:00:54.474Z,42.64
2022-12-18T09:03:27.753Z,42.59
2022-12-18T09:06:01.497Z,42.68
2022-12-18T09:08:34.284Z,42.71
2022-12-18T09:11:10.170Z,42.68
2022-12-18T09:13:43.639Z,42.77
2022-12-18T09:16:16.496Z,42.76
2022-12-18T09:18:49.557Z,42.74
2022-12-18T09:21:22.636Z,42.77
2022-12-18T09:23:55.664Z,42.69
2022-12-18T09:26:28.455Z,42.71
2022-12-18T09:29:01.476Z,42.72
2022-12-18T09:31:34.569Z,42.53
2022-12-18T09:34:07.635Z,42.57
2022-12-18T09:36:40.722Z,42.57
2022-12-18T09:39:13.337Z,42.58
2022-12-18T09:41:46.293Z,42.56
2022-12-18T09:44:19.677Z,42.58
2022-12-18T09:46:52.626Z,42.63
2022-12-18T09:49:25.496Z,42.57
2022-12-18T09:51:58.425Z,42.54
2022-12-18T09:54:31.692Z,42.62
2022-12-18T09:57:04.600Z,42.61
2022-12-18T09:59:37.640Z,42.70
2022-12-18T10:02:10.783Z,42.70
2022-12-18T10:04:43.655Z,42.60
2022-12-18T10:07:16.749Z,42.65
2022-12-18T10:09:49.516Z,42.49
2022-12-18T10:12:22.685Z,42.47
2022-12-18T10:14:55.755Z,42.35
2022-12-18T10:17:28.472Z,42.38
2022-12-18T10:20:15.573Z,42.46
2022-12-18T10:22:48.654Z,42.38
2022-12-18T10:25:21.799Z,42.41
2022-12-18T10:27:55.533Z,42.39
2022-12-18T10:30:28.513Z,42.44
2022-12-18T10:33:01.611Z,42.46
2022-12-18T10:35:34.766Z,42.50
2022-12-18T10:38:07.845Z,42.48
2022-12-18T10:40:40.415Z,42.48
2022-12-18T10:43:13.647Z,42.51
2022-12-18T10:45:46.584Z,42.51
2022-12-18T10:48:19.652Z,42.51
2022-12-18T10:53:25.811Z,42.53
2022-12-18T10:55:58.809Z,42.53
2022-12-18T10:58:31.693Z,42.52
2022-12-18T11:01:04.523Z,42.54
2022-12-18T11:03:37.876Z,42.48
2022-12-18T11:06:10.442Z,42.57
2022-12-18T11:08:44.356Z,42.50
2022-12-18T11:11:16.816Z,42.53
2022-12-18T11:13:49.792Z,42.52
2022-12-18T11:16:22.566Z,42.50
2022-12-18T11:18:55.727Z,42.53
2022-12-18T11:21:28.743Z,42.51
2022-12-18T11:24:01.567Z,42.53
2022-12-18T11:26:34.868Z,42.53
2022-12-18T11:29:07.817Z,42.57
2022-12-18T11:31:40.650Z,42.53
2022-12-18T11:34:29.004Z,42.51
2022-12-18T11:36:46.773Z,42.51
2022-12-18T11:39:19.910Z,42.52
2022-12-18T11:41:52.664Z,42.53
2022-12-18T11:44:25.892Z,42.57
2022-12-18T11:46:58.815Z,42.58
2022-12-18T11:49:31.502Z,42.55
2022-12-18T11:52:04.799Z,42.65
2022-12-18T11:54:37.804Z,42.58
2022-12-18T11:57:10.774Z,42.46
2022-12-18T11:59:43.731Z,42.55
2022-12-18T12:02:17.015Z,42.57
2022-12-18T12:04:49.840Z,42.66
2022-12-18T12:07:22.826Z,42.56
2022-12-18T12:09:55.921Z,42.51
2022-12-18T12:12:28.863Z,42.55
2022-12-18T12:15:01.820Z,42.52
2022-12-18T12:17:34.932Z,42.56
2022-12-18T12:20:07.953Z,42.62
2022-12-18T12:22:40.912Z,42.61
2022-12-18T12:25:13.977Z,42.64
2022-12-18T12:27:46.935Z,42.66
2022-12-18T12:30:19.943Z,42.68
2022-12-18T12:32:52.873Z,42.65
2022-12-18T12:35:25.860Z,42.63
2022-12-18T12:37:58.883Z,42.65
2022-12-18T12:43:04.850Z,42.70
2022-12-18T12:45:37.990Z,42.75
2022-12-18T12:48:10.612Z,42.76
2022-12-18T12:50:43.621Z,42.78
2022-12-18T12:53:16.883Z,42.75
2022-12-18T12:55:54.400Z,42.83
2022-12-18T13:01:04.818Z,42.84
2022-12-18T13:03:37.976Z,42.88
2022-12-18T13:06:10.885Z,42.86
2022-12-18T13:08:44.010Z,42.85
2022-12-18T13:11:17.002Z,42.83
2022-12-18T13:13:55.880Z,42.78
2022-12-18T13:16:29.004Z,42.81
2022-12-18T13:19:01.984Z,42.79
2022-12-18T13:21:35.030Z,42.79
2022-12-18T13:24:07.917Z,42.76
2022-12-18T13:26:40.768Z,42.72
2022-12-18T13:29:13.978Z,42.72
2022-12-18T13:31:46.952Z,42.72
2022-12-18T13:36:52.784Z,42.58
2022-12-18T13:39:32.742Z,42.56
2022-12-18T13:41:58.819Z,42.54
2022-12-18T13:44:34.858Z,42.45
2022-12-18T13:47:04.703Z,42.45
2022-12-18T13:49:37.950Z,42.44
2022-12-18T13:52:10.683Z,42.51
2022-12-18T13:54:43.852Z,42.55
2022-12-18T13:57:19.133Z,42.58
2022-12-18T13:59:49.972Z,42.62
2022-12-18T14:02:23.288Z,42.64
2022-12-18T14:04:56.496Z,42.68
2022-12-18T14:07:30.851Z,42.68
2022-12-18T14:12:35.000Z,42.70
2022-12-18T14:15:07.752Z,42.82
2022-12-18T14:17:41.112Z,42.88
2022-12-18T14:20:13.732Z,42.88
2022-12-18T14:22:46.923Z,42.77
2022-12-18T14:25:19.912Z,42.77
2022-12-18T14:27:53.958Z,42.75
2022-12-18T14:30:26.870Z,42.75
2022-12-18T14:33:00.076Z,42.79
2022-12-18T14:35:32.873Z,42.80
2022-12-18T14:38:05.902Z,42.72
2022-12-18T14:40:38.763Z,42.77
2022-12-18T14:43:11.908Z,42.71
2022-12-18T14:45:44.905Z,42.74
2022-12-18T14:48:23.642Z,42.78
2022-12-18T14:50:50.881Z,42.78
2022-12-18T14:53:23.935Z,42.81
2022-12-18T14:55:56.911Z,42.70
2022-12-18T14:58:30.021Z,42.73
2022-12-18T15:01:02.829Z,42.74
2022-12-18T15:03:35.876Z,42.77
2022-12-18T15:06:08.836Z,42.76
2022-12-18T15:08:42.211Z,42.80
2022-12-18T15:11:14.801Z,42.73
2022-12-18T15:13:48.296Z,42.75
2022-12-18T15:16:21.279Z,42.72
2022-12-18T15:18:54.113Z,42.73
2022-12-18T15:21:26.999Z,42.72
2022-12-18T15:23:59.829Z,42.82
2022-12-18T15:26:32.931Z,42.73
2022-12-18T15:29:05.961Z,42.67
2022-12-18T15:31:39.035Z,42.74
2022-12-18T15:34:11.944Z,42.83
2022-12-18T15:36:45.013Z,42.87
2022-12-18T15:39:17.872Z,42.80
2022-12-18T15:41:50.912Z,42.85
2022-12-18T15:44:24.353Z,42.98
2022-12-18T15:46:57.058Z,42.94
2022-12-18T15:49:30.164Z,42.89
2022-12-18T15:52:02.956Z,42.96
2022-12-18T15:54:35.882Z,43.00
2022-12-18T15:57:08.885Z,43.10
2022-12-18T15:59:42.173Z,43.04
2022-12-18T16:02:15.291Z,43.06
2022-12-18T16:04:48.207Z,43.12
2022-12-18T16:07:24.548Z,43.14
2022-12-18T16:09:54.213Z,42.94
2022-12-18T16:12:27.303Z,42.93
2022-12-18T16:15:00.315Z,42.92
2022-12-18T16:17:32.923Z,42.92
2022-12-18T16:20:06.041Z,42.99
2022-12-18T16:22:39.197Z,42.99
2022-12-18T16:25:12.258Z,42.91
2022-12-18T16:27:45.164Z,42.93
2022-12-18T16:30:18.067Z,42.93
2022-12-18T16:32:51.078Z,43.03
2022-12-18T16:35:24.067Z,42.98
2022-12-18T16:37:57.064Z,42.93
2022-12-18T16:40:30.128Z,42.85
2022-12-18T16:43:03.056Z,42.46
2022-12-18T16:45:36.305Z,40.64
2022-12-18T16:48:09.296Z,41.24
2022-12-18T16:50:42.100Z,41.45
2022-12-18T16:53:15.166Z,41.70
2022-12-18T16:55:48.220Z,41.88
2022-12-18T16:58:21.330Z,42.03
2022-12-18T17:00:54.177Z,42.05
2022-12-18T17:03:27.296Z,42.16
2022-12-18T17:06:00.264Z,42.34
2022-12-18T17:08:33.119Z,42.43
2022-12-18T17:11:06.115Z,42.44
2022-12-18T17:13:39.816Z,42.47
2022-12-18T17:16:12.188Z,42.58
2022-12-18T17:18:45.131Z,42.53
2022-12-18T17:21:18.261Z,42.57
2022-12-18T17:23:51.037Z,42.55
2022-12-18T17:26:24.344Z,42.54
2022-12-18T17:28:57.126Z,42.55
2022-12-18T17:31:30.660Z,42.54
2022-12-18T17:34:04.363Z,42.49
2022-12-18T17:36:37.291Z,42.50
2022-12-18T17:39:10.034Z,42.55
2022-12-18T17:41:43.426Z,42.48
2022-12-18T17:44:16.078Z,42.44
2022-12-18T17:46:49.490Z,42.43
2022-12-18T17:49:22.091Z,42.49
2022-12-18T17:51:55.229Z,42.47
2022-12-18T17:54:28.216Z,42.51
2022-12-18T17:57:01.263Z,42.49
2022-12-18T17:59:34.425Z,42.58
2022-12-18T18:02:07.708Z,42.61
2022-12-18T18:04:40.498Z,42.57
2022-12-18T18:07:13.099Z,42.48
2022-12-18T18:09:46.189Z,42.48
2022-12-18T18:12:19.490Z,42.61
2022-12-18T18:14:52.287Z,42.65
2022-12-18T18:17:25.576Z,42.60
2022-12-18T18:19:58.282Z,42.59
2022-12-18T18:22:31.384Z,42.64
2022-12-18T18:25:04.314Z,42.61
2022-12-18T18:27:38.911Z,42.59
2022-12-18T18:30:10.145Z,42.56
2022-12-18T18:32:43.418Z,42.63
2022-12-18T18:35:51.926Z,42.61
2022-12-18T18:37:49.500Z,42.64
2022-12-18T18:40:22.316Z,42.65
2022-12-18T18:42:55.180Z,42.51
2022-12-18T18:45:28.375Z,42.59
2022-12-18T18:48:01.393Z,42.61
2022-12-18T18:50:34.180Z,42.66
2022-12-18T18:53:07.188Z,42.62
2022-12-18T18:55:40.164Z,42.53
2022-12-18T18:58:13.524Z,42.56
2022-12-18T19:00:46.390Z,42.64
2022-12-18T19:03:19.732Z,42.47
2022-12-18T19:05:52.480Z,42.57
2022-12-18T19:08:25.513Z,42.41
2022-12-18T19:10:58.373Z,42.35
2022-12-18T19:13:31.227Z,42.34
2022-12-18T19:16:04.402Z,42.34
2022-12-18T19:18:37.596Z,42.24
2022-12-18T19:21:10.197Z,42.19
2022-12-18T19:23:43.482Z,42.35
2022-12-18T19:26:27.517Z,42.33
2022-12-18T19:28:49.230Z,42.40
2022-12-18T19:31:25.568Z,42.32
2022-12-18T19:33:55.406Z,42.38
2022-12-18T19:36:28.638Z,42.45
2022-12-18T19:39:01.600Z,42.47
2022-12-18T19:41:34.228Z,42.37
2022-12-18T19:44:08.422Z,42.42
2022-12-18T19:46:42.049Z,42.44
2022-12-18T19:49:13.657Z,42.38
2022-12-18T19:51:46.468Z,42.45
2022-12-18T19:54:19.449Z,42.40
2022-12-18T19:56:52.457Z,42.48
2022-12-18T19:59:25.393Z,42.48
2022-12-18T20:01:58.576Z,42.42
2022-12-18T20:04:31.421Z,42.42
2022-12-18T20:07:04.272Z,42.45
2022-12-18T20:09:37.512Z,42.45
2022-12-18T20:12:10.285Z,42.42
2022-12-18T20:14:43.458Z,42.45
2022-12-18T20:17:16.335Z,42.43
2022-12-18T20:19:49.596Z,42.44
2022-12-18T20:22:22.371Z,42.46
2022-12-18T20:24:55.317Z,42.41
2022-12-18T20:27:28.495Z,42.49
2022-12-18T20:30:01.356Z,42.52
2022-12-18T20:32:37.271Z,42.52
2022-12-18T20:35:07.629Z,42.52
2022-12-18T20:37:41.898Z,42.54
2022-12-18T20:40:13.504Z,42.49
2022-12-18T20:42:46.603Z,42.41
2022-12-18T20:45:19.458Z,42.52
2022-12-18T20:47:52.561Z,42.46
2022-12-18T20:50:25.463Z,42.43
2022-12-18T20:52:58.513Z,42.48
2022-12-18T20:55:31.505Z,42.50
2022-12-18T20:58:04.502Z,42.45
2022-12-18T21:00:37.448Z,42.48
2022-12-18T21:03:10.535Z,42.47
2022-12-18T21:05:43.660Z,42.47
2022-12-18T21:08:16.775Z,42.52
2022-12-18T21:10:49.398Z,42.47
2022-12-18T21:13:22.773Z,42.01
2022-12-18T21:15:55.641Z,41.32
2022-12-18T21:18:28.397Z,40.54
2022-12-18T21:21:01.696Z,41.32
2022-12-18T21:23:34.644Z,41.54
2022-12-18T21:26:07.471Z,41.72
2022-12-18T21:28:46.425Z,41.78
2022-12-18T21:31:19.443Z,41.82
2022-12-18T21:33:55.256Z,41.92
2022-12-18T21:36:25.739Z,41.81
2022-12-18T21:38:58.614Z,41.82
2022-12-18T21:41:31.516Z,41.72
2022-12-18T21:44:04.573Z,41.79
2022-12-18T21:46:37.540Z,41.79
2022-12-18T21:49:10.610Z,41.83
2022-12-18T21:51:43.765Z,41.76
2022-12-18T21:54:16.478Z,41.83
2022-12-18T21:56:49.635Z,41.89
2022-12-18T21:59:22.557Z,41.89
2022-12-18T22:01:55.939Z,41.90
2022-12-18T22:04:28.762Z,41.81
2022-12-18T22:07:02.037Z,41.86
2022-12-18T22:09:35.756Z,41.75
2022-12-18T22:12:08.601Z,41.82
2022-12-18T22:14:41.840Z,41.78
2022-12-18T22:17:14.732Z,41.70
2022-12-18T22:19:47.773Z,41.81
2022-12-18T22:22:20.735Z,41.90
2022-12-18T22:24:53.865Z,41.87
2022-12-18T22:27:26.760Z,41.85
2022-12-18T22:29:59.868Z,41.87
2022-12-18T22:32:32.873Z,41.86
2022-12-18T22:35:09.406Z,41.70
2022-12-18T22:37:38.896Z,41.79
2022-12-18T22:40:12.215Z,41.81
2022-12-18T22:42:44.789Z,41.78
2022-12-18T22:45:17.895Z,42.01
2022-12-18T22:47:50.832Z,42.03
2022-12-18T22:50:23.900Z,41.94
2022-12-18T22:52:56.925Z,41.94
2022-12-18T22:55:29.883Z,41.96
2022-12-18T22:58:02.833Z,41.89
2022-12-18T23:00:35.569Z,41.99
2022-12-18T23:03:09.023Z,41.96
2022-12-18T23:05:41.936Z,42.04
2022-12-18T23:08:15.020Z,42.04
2022-12-18T23:10:47.905Z,42.06
2022-12-18T23:13:20.836Z,42.09
2022-12-18T23:15:53.924Z,42.07
2022-12-18T23:18:26.946Z,42.01
2022-12-18T23:20:59.924Z,42.14
2022-12-18T23:23:33.001Z,42.21
2022-12-18T23:26:05.930Z,42.22
2022-12-18T23:28:38.846Z,42.19
2022-12-18T23:31:11.923Z,42.28
2022-12-18T23:33:44.952Z,42.31
2022-12-18T23:36:17.895Z,42.35
2022-12-18T23:38:51.089Z,42.28
2022-12-18T23:41:23.745Z,42.38
2022-12-18T23:43:59.922Z,42.26
2022-12-18T23:46:33.005Z,42.36
2022-12-18T23:49:06.627Z,42.34
2022-12-18T23:51:38.896Z,42.34
2022-12-18T23:54:12.034Z,42.25
2022-12-18T23:56:44.920Z,42.22
2022-12-18T23:59:21.375Z,42.31
